Azamara Journey — 9HOB8 — position and weather

sailwx.info

Track history (hours):
 
Tides and Currents Weather Stations Pressure Air Temp Water Temp Dewpoint Dewpoint Depression Visibility Wind Speed Wind Dir Waves Ship Positions

Azamara Journey

Last reported at 2017-Mar-24 01:19 UTC. Time now 2017-Mar-24 10:09 UTC.
Position S 27°26' E 153°04'.

Type: Passenger vessel. MMSI: 256204000.

Date/timePositionNaut miles runAvg speedWind from/ knotsBaromVisibWave heightAir tempDewpointWater temp
2017-Mar-24 01:19S 27°26' E 153°04'0 0.0
2017-Mar-24 00:19S 27°26' E 153°04'0 0.0
2017-Mar-23 21:33S 27°27' E 153°04'6 6.0
2017-Mar-23 20:34S 27°23' E 153°10'1110.9
2017-Mar-23 19:34S 27°14' E 153°16'1110.9
2017-Mar-23 18:33S 27°03' E 153°17'1514.6
2017-Mar-23 17:33S 26°50' E 153°09'10 9.8
2017-Mar-23 16:33S 26°47' E 153°19'1212.2
2017-Mar-23 15:33S 26°54' E 153°30'1313.4
2017-Mar-23 14:33S 27°06' E 153°36'1613.2
2017-Mar-23 13:20S 27°21' E 153°42'1113.0
2017-Mar-23 12:29S 27°32' E 153°45'1415.2
2017-Mar-23 11:33S 27°46' E 153°48'28715.7
2017-Mar-22 17:17S 32°27' E 152°38'1217.1
2017-Mar-22 16:33S 32°38' E 152°30'1818.1
2017-Mar-22 15:33S 32°52' E 152°17'1818.1
2017-Mar-22 14:33S 33°07' E 152°05'  
Track history (hours):
 
Tides and Currents Weather Stations Pressure Air Temp Water Temp Dewpoint Dewpoint Depression Visibility Wind Speed Wind Dir Waves Ship Positions

Azamara Journey

Last reported at 2017-Mar-24 01:19 UTC. Time now 2017-Mar-24 10:09 UTC.
Position S 27°26' E 153°04'.

Type: Passenger vessel. MMSI: 256204000.

Date/timePositionNaut miles runAvg speedWind from/ knotsBaromVisibWave heightAir tempDewpointWater temp
2017-Mar-24 01:19S 27°26' E 153°04'0 0.0
2017-Mar-24 00:19S 27°26' E 153°04'0 0.0
2017-Mar-23 21:33S 27°27' E 153°04'6 6.0
2017-Mar-23 20:34S 27°23' E 153°10'1110.9
2017-Mar-23 19:34S 27°14' E 153°16'1110.9
2017-Mar-23 18:33S 27°03' E 153°17'1514.6
2017-Mar-23 17:33S 26°50' E 153°09'10 9.8
2017-Mar-23 16:33S 26°47' E 153°19'1212.2
2017-Mar-23 15:33S 26°54' E 153°30'1313.4
2017-Mar-23 14:33S 27°06' E 153°36'1613.2
2017-Mar-23 13:20S 27°21' E 153°42'1113.0
2017-Mar-23 12:29S 27°32' E 153°45'1415.2
2017-Mar-23 11:33S 27°46' E 153°48'28715.7
2017-Mar-22 17:17S 32°27' E 152°38'1217.1
2017-Mar-22 16:33S 32°38' E 152°30'1818.1
2017-Mar-22 15:33S 32°52' E 152°17'1818.1
2017-Mar-22 14:33S 33°07' E 152°05'  

Dump ship's entire track history